Time;durP1;ratioP1;P1;durP2;ratioP2;P2;SDS_P1;SDS_P2;PMS_P1;PMS_P2;Temp;Humidity;BMP_temperature;BMP_pressure;BME280_temperature;BME280_humidity;BME280_pressure;Samples;Min_cycle;Max_cycle;Signal;HPM_P1;HPM_P2
2022/04/04 00:00:13;;;;;;;6.05;3.30;;;;;;;-148.16;100.00;58328.31;5092185;28;20429;-62
2022/04/04 00:03:04;;;;;;;6.68;3.08;;;;;;;-148.16;100.00;58328.31;5092146;28;20054;-62
2022/04/04 00:05:49;;;;;;;7.35;3.20;;;;;;;-148.16;100.00;58328.31;5091447;28;20036;-61
2022/04/04 00:08:34;;;;;;;5.88;2.97;;;;;;;-148.16;100.00;58328.31;5091472;28;20047;-62
2022/04/04 00:11:18;;;;;;;5.00;2.83;;;;;;;-148.16;100.00;58328.31;5092421;28;20055;-63
2022/04/04 00:14:03;;;;;;;5.07;2.75;;;;;;;-148.16;100.00;58328.31;5092294;28;20040;-62
2022/04/04 00:16:48;;;;;;;6.45;3.00;;;;;;;-148.16;100.00;58328.31;5092725;28;20049;-62
2022/04/04 00:19:33;;;;;;;4.13;3.17;;;;;;;-148.16;100.00;58328.31;5092741;28;20036;-62
2022/04/04 00:22:18;;;;;;;5.75;3.10;;;;;;;-148.16;100.00;58328.31;5091013;28;20058;-63
2022/04/04 00:25:05;;;;;;;5.80;2.80;;;;;;;-148.16;100.00;58328.31;5093209;28;20036;-62
2022/04/04 00:27:50;;;;;;;5.85;3.30;;;;;;;-148.16;100.00;58328.31;5094255;28;20113;-61
2022/04/04 00:30:36;;;;;;;5.20;3.25;;;;;;;-148.16;100.00;58328.31;5095939;28;20047;-62
2022/04/04 00:33:21;;;;;;;6.40;3.40;;;;;;;-148.16;100.00;58328.31;5081245;28;20052;-64
2022/04/04 00:36:06;;;;;;;6.20;3.08;;;;;;;-148.16;100.00;58328.31;5096187;28;20464;-62
2022/04/04 00:38:51;;;;;;;5.93;3.88;;;;;;;-148.16;100.00;58328.31;5095441;28;20407;-63
2022/04/04 00:41:37;;;;;;;7.20;3.42;;;;;;;-148.16;100.00;58328.31;5096258;28;20074;-63
2022/04/04 00:44:22;;;;;;;6.55;3.50;;;;;;;-148.16;100.00;58328.31;5096307;28;20044;-63
2022/04/04 00:47:07;;;;;;;6.55;4.10;;;;;;;-148.16;100.00;58328.31;5096000;28;20051;-64
2022/04/04 00:49:52;;;;;;;5.32;3.53;;;;;;;-148.16;100.00;58328.31;5096032;28;20053;-62
2022/04/04 00:52:37;;;;;;;5.32;3.42;;;;;;;-148.16;100.00;58328.31;5096056;28;20044;-62
2022/04/04 00:55:22;;;;;;;5.22;3.65;;;;;;;-148.16;100.00;58328.31;5095876;28;20040;-63
2022/04/04 00:58:08;;;;;;;5.18;3.20;;;;;;;-148.16;100.00;58328.31;5096016;28;20097;-62
2022/04/04 01:00:53;;;;;;;5.55;3.60;;;;;;;-148.16;100.00;58328.31;5095898;28;20065;-62
2022/04/04 01:03:37;;;;;;;5.10;3.80;;;;;;;-148.16;100.00;58328.31;5095397;28;20047;-63
2022/04/04 01:06:22;;;;;;;6.05;3.80;;;;;;;-148.16;100.00;58328.31;5095743;28;20105;-62
2022/04/04 01:09:07;;;;;;;7.07;3.70;;;;;;;-148.16;100.00;58328.31;5095573;28;20502;-61
2022/04/04 01:12:08;;;;;;;7.25;4.00;;;;;;;-148.16;100.00;58328.31;5095688;28;20064;-61
2022/04/04 01:14:52;;;;;;;6.78;4.32;;;;;;;-148.16;100.00;58328.31;5095438;28;20047;-62
2022/04/04 01:17:37;;;;;;;6.65;3.88;;;;;;;-148.16;100.00;58328.31;5095901;28;20483;-62
2022/04/04 01:20:22;;;;;;;6.25;3.70;;;;;;;-148.16;100.00;58328.31;5095342;28;20040;-62
2022/04/04 01:23:07;;;;;;;11.02;4.28;;;;;;;-148.16;100.00;58328.31;5094245;28;20051;-60
2022/04/04 01:25:52;;;;;;;6.13;4.40;;;;;;;-148.16;100.00;58328.31;5095443;28;20506;-62
2022/04/04 01:28:40;;;;;;;8.98;4.43;;;;;;;-148.16;100.00;58328.31;5094441;28;20092;-62
2022/04/04 01:31:25;;;;;;;8.82;4.85;;;;;;;-148.16;100.00;58328.31;5094451;28;20039;-61
2022/04/04 01:34:10;;;;;;;8.27;5.05;;;;;;;-148.16;100.00;58328.31;5093940;28;20051;-61
2022/04/04 01:36:55;;;;;;;8.35;4.90;;;;;;;-148.16;100.00;58328.31;5093856;28;20064;-62
2022/04/04 01:39:40;;;;;;;6.70;3.88;;;;;;;-148.16;100.00;58328.31;5095150;28;20044;-62
2022/04/04 01:42:25;;;;;;;12.23;6.70;;;;;;;-148.16;100.00;58328.31;5093999;28;20035;-62
2022/04/04 01:45:11;;;;;;;7.13;4.93;;;;;;;-148.16;100.00;58328.31;5094721;28;20105;-62
2022/04/04 01:47:56;;;;;;;11.10;4.82;;;;;;;-148.16;100.00;58328.31;5095030;28;20055;-59
2022/04/04 01:50:41;;;;;;;8.15;4.65;;;;;;;-148.16;100.00;58328.31;5094985;28;20410;-62
2022/04/04 01:53:25;;;;;;;8.25;4.63;;;;;;;-148.16;100.00;58328.31;5094739;28;20069;-62
2022/04/04 01:56:10;;;;;;;7.93;4.82;;;;;;;-148.16;100.00;58328.31;5094824;28;20118;-61
2022/04/04 01:58:54;;;;;;;8.05;4.10;;;;;;;-148.16;100.00;58328.31;5093549;28;20055;-62
2022/04/04 02:01:40;;;;;;;6.50;4.47;;;;;;;-148.16;100.00;58328.31;5094778;28;20044;-62
2022/04/04 02:04:25;;;;;;;10.30;4.97;;;;;;;-148.16;100.00;58328.31;5093918;28;20040;-63
2022/04/04 02:07:10;;;;;;;7.50;5.13;;;;;;;-148.16;100.00;58328.31;5094077;28;20075;-61
2022/04/04 02:09:58;;;;;;;9.88;5.07;;;;;;;-148.16;100.00;58328.31;5094379;28;20044;-62
2022/04/04 02:12:43;;;;;;;8.30;4.60;;;;;;;-148.16;100.00;58328.31;5093363;28;20059;-63
2022/04/04 02:15:28;;;;;;;12.07;5.72;;;;;;;-148.16;100.00;58328.31;5093434;28;20044;-60
2022/04/04 02:18:13;;;;;;;8.48;4.78;;;;;;;-148.16;100.00;58328.31;5093177;28;20161;-63
2022/04/04 02:20:59;;;;;;;6.03;3.78;;;;;;;-148.16;100.00;58328.31;5094197;28;20053;-64
2022/04/04 02:23:43;;;;;;;8.30;4.75;;;;;;;-148.16;100.00;58328.31;5094319;28;20120;-63
2022/04/04 02:26:29;;;;;;;6.35;4.10;;;;;;;-148.16;100.00;58328.31;5094329;28;20047;-63
2022/04/04 02:29:13;;;;;;;8.95;5.65;;;;;;;-148.16;100.00;58328.31;5094092;28;20074;-62
2022/04/04 02:31:58;;;;;;;9.13;5.13;;;;;;;-148.16;100.00;58328.31;5094084;28;20044;-62
2022/04/04 02:34:42;;;;;;;5.75;4.38;;;;;;;-148.16;100.00;58328.31;5094101;28;20039;-62
2022/04/04 02:37:27;;;;;;;9.15;5.22;;;;;;;-148.16;100.00;58328.31;5093647;28;20051;-63
2022/04/04 02:40:11;;;;;;;6.63;4.32;;;;;;;-148.16;100.00;58328.31;5093698;28;20734;-60
2022/04/04 02:42:57;;;;;;;6.65;4.43;;;;;;;-148.16;100.00;58328.31;5094129;28;20076;-62
2022/04/04 02:45:42;;;;;;;8.18;4.63;;;;;;;-148.16;100.00;58328.31;5093788;28;20453;-62
2022/04/04 02:48:27;;;;;;;9.45;4.22;;;;;;;-148.16;100.00;58328.31;5093030;28;20040;-62
2022/04/04 02:51:12;;;;;;;8.80;5.00;;;;;;;-148.16;100.00;58328.31;5093122;28;20806;-61
2022/04/04 02:53:57;;;;;;;7.97;4.97;;;;;;;-148.16;100.00;58328.31;5072480;28;20090;-61
2022/04/04 02:56:42;;;;;;;8.55;4.88;;;;;;;-148.16;100.00;58328.31;5072271;28;20497;-62
2022/04/04 02:59:26;;;;;;;7.35;4.70;;;;;;;-148.16;100.00;58328.31;5073551;28;20499;-62
2022/04/04 03:02:12;;;;;;;6.97;3.97;;;;;;;-148.16;100.00;58328.31;5086554;28;20055;-59
2022/04/04 03:04:57;;;;;;;7.13;4.10;;;;;;;-148.16;100.00;58328.31;5091080;28;20040;-61
2022/04/04 03:07:42;;;;;;;7.25;4.55;;;;;;;-148.16;100.00;58328.31;5091753;28;20089;-61
2022/04/04 03:10:28;;;;;;;8.25;4.50;;;;;;;-148.16;100.00;58328.31;5092087;28;20046;-63
2022/04/04 03:13:12;;;;;;;7.90;4.70;;;;;;;-148.16;100.00;58328.31;5092384;28;20483;-61
2022/04/04 03:15:57;;;;;;;6.00;4.40;;;;;;;-148.16;100.00;58328.31;5092026;28;20490;-62
2022/04/04 03:18:41;;;;;;;7.95;4.50;;;;;;;-148.16;100.00;58328.31;5092484;28;20040;-60
2022/04/04 03:21:30;;;;;;;7.68;4.93;;;;;;;-148.16;100.00;58328.31;5072671;28;20045;-63
2022/04/04 03:24:14;;;;;;;10.43;4.85;;;;;;;-148.16;100.00;58328.31;5085255;28;20041;-61
2022/04/04 03:26:59;;;;;;;6.80;4.70;;;;;;;-148.16;100.00;58328.31;5092908;28;20078;-63
2022/04/04 03:29:44;;;;;;;7.53;4.63;;;;;;;-148.16;100.00;58328.31;5093012;28;20050;-62
2022/04/04 03:32:29;;;;;;;6.55;4.25;;;;;;;-148.16;100.00;58328.31;5092176;28;20044;-62
2022/04/04 03:35:14;;;;;;;8.55;4.78;;;;;;;-148.16;100.00;58328.31;5092688;28;20044;-62
2022/04/04 03:38:01;;;;;;;7.80;4.47;;;;;;;-148.16;100.00;58328.31;5092560;28;20044;-61
2022/04/04 03:40:46;;;;;;;8.68;4.22;;;;;;;-148.16;100.00;58328.31;5092420;28;20050;-63
2022/04/04 03:43:30;;;;;;;7.30;4.70;;;;;;;-148.16;100.00;58328.31;5092782;28;20436;-63
2022/04/04 03:46:15;;;;;;;5.45;4.07;;;;;;;-148.16;100.00;58328.31;5091522;28;20398;-63
2022/04/04 03:49:00;;;;;;;6.82;4.28;;;;;;;-148.16;100.00;58328.31;5091698;28;20068;-62
2022/04/04 03:51:45;;;;;;;6.72;4.30;;;;;;;-148.16;100.00;58328.31;5091799;28;20093;-63
2022/04/04 03:54:30;;;;;;;6.70;4.13;;;;;;;-148.16;100.00;58328.31;5093026;28;20090;-63
2022/04/04 03:57:15;;;;;;;6.47;4.00;;;;;;;-148.16;100.00;58328.31;5092638;28;20040;-62
2022/04/04 04:00:00;;;;;;;7.50;4.68;;;;;;;-148.16;100.00;58328.31;5091690;28;20472;-63
2022/04/04 04:02:45;;;;;;;6.60;4.40;;;;;;;-148.16;100.00;58328.31;5092656;28;20044;-63
2022/04/04 04:05:29;;;;;;;8.18;4.65;;;;;;;-148.16;100.00;58328.31;5092785;28;20048;-63
2022/04/04 04:08:14;;;;;;;8.20;4.60;;;;;;;-148.16;100.00;58328.31;5092845;28;20052;-59
2022/04/04 04:10:58;;;;;;;8.40;4.18;;;;;;;-148.16;100.00;58328.31;5092182;28;20048;-60
2022/04/04 04:13:45;;;;;;;7.32;4.78;;;;;;;-148.16;100.00;58328.31;5092409;28;20479;-62
2022/04/04 04:16:30;;;;;;;7.57;4.78;;;;;;;-148.16;100.00;58328.31;5089050;28;20032;-62
2022/04/04 04:22:19;;;;;;;7.47;4.95;;;;;;;-148.16;100.00;58328.31;5091749;28;20074;-62
2022/04/04 04:25:05;;;;;;;8.95;5.20;;;;;;;-148.16;100.00;58328.31;5092345;28;20056;-61
2022/04/04 04:27:51;;;;;;;9.45;5.25;;;;;;;-148.16;100.00;58328.31;5092301;28;20048;-61
2022/04/04 04:30:35;;;;;;;6.18;4.15;;;;;;;-148.16;100.00;58328.31;5090550;28;20071;-60
2022/04/04 04:33:22;;;;;;;8.23;4.85;;;;;;;-148.16;100.00;58328.31;5092512;28;20052;-65
2022/04/04 04:36:07;;;;;;;8.80;5.05;;;;;;;-148.16;100.00;58328.31;5062708;28;20048;-59
2022/04/04 04:38:52;;;;;;;7.55;4.05;;;;;;;-148.16;100.00;58328.31;5087332;28;20093;-59
2022/04/04 04:41:37;;;;;;;6.88;4.05;;;;;;;-148.16;100.00;58328.31;5090766;28;20042;-59
2022/04/04 04:44:22;;;;;;;6.25;4.35;;;;;;;-148.16;100.00;58328.31;5091126;28;20048;-59
2022/04/04 04:47:08;;;;;;;10.32;5.57;;;;;;;-148.16;100.00;58328.31;5090252;28;20068;-60
2022/04/04 04:49:53;;;;;;;7.47;4.65;;;;;;;-148.16;100.00;58328.31;5091070;28;20044;-61
2022/04/04 04:52:38;;;;;;;7.65;4.22;;;;;;;-148.16;100.00;58328.31;5091602;28;20100;-61
2022/04/04 04:55:24;;;;;;;9.85;4.63;;;;;;;-148.16;100.00;58328.31;5092013;28;20044;-61
2022/04/04 04:58:09;;;;;;;7.38;4.43;;;;;;;-148.16;100.00;58328.31;5091943;28;20127;-59
2022/04/04 05:00:54;;;;;;;7.10;4.45;;;;;;;-148.16;100.00;58328.31;5076652;28;20048;-60
2022/04/04 05:03:38;;;;;;;6.72;3.95;;;;;;;-148.16;100.00;58328.31;5090852;28;20040;-61
2022/04/04 05:06:23;;;;;;;6.43;4.38;;;;;;;-148.16;100.00;58328.31;5092493;28;20058;-61
2022/04/04 05:09:08;;;;;;;8.85;4.45;;;;;;;-148.16;100.00;58328.31;5091674;28;20044;-62
2022/04/04 05:11:53;;;;;;;10.63;4.63;;;;;;;-148.16;100.00;58328.31;5094233;28;20054;-61
2022/04/04 05:14:40;;;;;;;8.18;4.60;;;;;;;-148.16;100.00;58328.31;5095149;28;20044;-61
2022/04/04 05:17:24;;;;;;;7.97;4.55;;;;;;;-148.16;100.00;58328.31;5095386;28;20062;-63
2022/04/04 05:20:10;;;;;;;7.78;4.25;;;;;;;-148.16;100.00;58328.31;5094989;28;20127;-61
2022/04/04 05:22:55;;;;;;;7.13;4.28;;;;;;;-148.16;100.00;58328.31;5090981;28;20040;-62
2022/04/04 05:25:43;;;;;;;7.25;4.50;;;;;;;-148.16;100.00;58328.31;5091615;28;21436;-61
2022/04/04 05:28:27;;;;;;;31.50;11.50;;;;;;;-148.16;100.00;58328.31;5095227;28;20036;-62
2022/04/04 05:31:12;;;;;;;11.75;5.68;;;;;;;-148.16;100.00;58328.31;5095240;28;20066;-66
2022/04/04 05:34:01;;;;;;;12.30;4.85;;;;;;;-148.16;100.00;58328.31;5079487;28;20039;-61
2022/04/04 05:36:46;;;;;;;13.15;5.07;;;;;;;-148.16;100.00;58328.31;5094907;28;20036;-60
2022/04/04 05:39:30;;;;;;;8.27;4.75;;;;;;;-148.16;100.00;58328.31;5095823;28;20066;-60
2022/04/04 05:42:16;;;;;;;7.15;4.78;;;;;;;-148.16;100.00;58328.31;5095493;28;20043;-60
2022/04/04 05:45:01;;;;;;;7.97;4.78;;;;;;;-148.16;100.00;58328.31;5092050;28;20040;-63
2022/04/04 05:47:45;;;;;;;8.70;4.05;;;;;;;-148.16;100.00;58328.31;5095556;28;20040;-59
2022/04/04 05:50:30;;;;;;;8.57;4.18;;;;;;;-148.16;100.00;58328.31;5096133;28;20044;-61
2022/04/04 05:53:15;;;;;;;6.80;4.15;;;;;;;-148.16;100.00;58328.31;5094381;28;20089;-58
2022/04/04 05:56:00;;;;;;;8.32;3.58;;;;;;;-148.16;100.00;58328.31;5095528;28;20177;-62
2022/04/04 05:58:44;;;;;;;6.65;3.92;;;;;;;-148.16;100.00;58328.31;5079664;28;20115;-61
2022/04/04 06:01:29;;;;;;;7.75;4.60;;;;;;;-148.16;100.00;58328.31;5092432;28;20044;-61
2022/04/04 06:04:13;;;;;;;6.78;3.25;;;;;;;-148.16;100.00;58328.31;5095017;28;20044;-62
2022/04/04 06:06:58;;;;;;;12.15;3.90;;;;;;;-148.16;100.00;58328.31;5080827;28;20047;-61
2022/04/04 06:09:43;;;;;;;7.88;4.50;;;;;;;-148.16;100.00;58328.31;5095023;28;20411;-60
2022/04/04 06:12:28;;;;;;;9.20;4.97;;;;;;;-148.16;100.00;58328.31;5094815;28;20047;-62
2022/04/04 06:15:14;;;;;;;9.10;3.72;;;;;;;-148.16;100.00;58328.31;5074743;28;20044;-56
2022/04/04 06:18:00;;;;;;;10.13;5.18;;;;;;;-148.16;100.00;58328.31;5088204;28;20043;-58
2022/04/04 06:20:45;;;;;;;7.78;4.88;;;;;;;-148.16;100.00;58328.31;5095532;28;20082;-59
2022/04/04 06:23:30;;;;;;;8.80;4.97;;;;;;;-148.16;100.00;58328.31;5073699;28;20040;-58
2022/04/04 06:26:14;;;;;;;7.80;4.50;;;;;;;-148.16;100.00;58328.31;5073511;28;20063;-60
2022/04/04 06:28:59;;;;;;;8.75;5.10;;;;;;;-148.16;100.00;58328.31;5073865;28;20052;-57
2022/04/04 06:31:44;;;;;;;8.60;4.70;;;;;;;-148.16;100.00;58328.31;5073304;28;20056;-57
2022/04/04 06:34:29;;;;;;;7.78;4.53;;;;;;;-148.16;100.00;58328.31;5080726;28;20051;-56
2022/04/04 06:37:14;;;;;;;8.82;5.00;;;;;;;-148.16;100.00;58328.31;5091032;28;20111;-57
2022/04/04 06:39:58;;;;;;;8.80;4.60;;;;;;;-148.16;100.00;58328.31;5093912;28;20048;-60
2022/04/04 06:42:45;;;;;;;9.50;4.57;;;;;;;-148.16;100.00;58328.31;5092346;28;20452;-56
2022/04/04 06:45:29;;;;;;;8.07;4.38;;;;;;;-148.16;100.00;58328.31;5092899;28;20044;-59
2022/04/04 06:48:14;;;;;;;7.63;4.60;;;;;;;-148.16;100.00;58328.31;5092125;28;20467;-58
2022/04/04 06:51:01;;;;;;;7.07;4.55;;;;;;;-148.16;100.00;58328.31;5078269;28;20052;-58
2022/04/04 06:53:46;;;;;;;9.27;4.80;;;;;;;-148.16;100.00;58328.31;5093545;28;20117;-59
2022/04/04 06:56:32;;;;;;;10.88;4.80;;;;;;;-148.16;100.00;58328.31;5093588;28;20506;-59
2022/04/04 06:59:16;;;;;;;7.53;4.07;;;;;;;-148.16;100.00;58328.31;5093475;28;20131;-57
2022/04/04 07:02:01;;;;;;;9.38;4.32;;;;;;;-148.16;100.00;58328.31;5093297;28;20039;-59
2022/04/04 07:04:46;;;;;;;8.18;4.05;;;;;;;-148.16;100.00;58328.31;5093371;28;20119;-57
2022/04/04 07:07:32;;;;;;;11.20;4.50;;;;;;;-148.16;100.00;58328.31;5093442;28;20067;-59
2022/04/04 07:10:17;;;;;;;6.68;4.05;;;;;;;-148.16;100.00;58328.31;5092236;28;20111;-59
2022/04/04 07:13:04;;;;;;;6.93;4.18;;;;;;;-148.16;100.00;58328.31;5093170;28;20040;-58
2022/04/04 07:15:49;;;;;;;7.57;4.00;;;;;;;-148.16;100.00;58328.31;5093263;28;20059;-59
2022/04/04 07:18:34;;;;;;;7.18;3.90;;;;;;;-148.16;100.00;58328.31;5093457;28;20067;-59
2022/04/04 07:21:18;;;;;;;5.75;3.60;;;;;;;-148.16;100.00;58328.31;5092716;28;20115;-58
2022/04/04 07:24:03;;;;;;;5.13;3.42;;;;;;;-148.16;100.00;58328.31;5092139;28;20506;-59
2022/04/04 07:26:48;;;;;;;5.05;3.15;;;;;;;-148.16;100.00;58328.31;5084063;28;20055;-59
2022/04/04 07:29:33;;;;;;;8.68;3.20;;;;;;;-148.16;100.00;58328.31;5072763;28;20475;-59
2022/04/04 07:32:17;;;;;;;5.82;3.28;;;;;;;-148.16;100.00;58328.31;5075507;28;20050;-57
2022/04/04 07:35:03;;;;;;;5.18;2.80;;;;;;;-148.16;100.00;58328.31;5092422;28;20321;-58
2022/04/04 07:37:50;;;;;;;4.88;3.50;;;;;;;-148.16;100.00;58328.31;5091768;28;20040;-59
2022/04/04 07:40:34;;;;;;;5.65;3.88;;;;;;;-148.16;100.00;58328.31;5091800;28;20036;-59
2022/04/04 07:43:19;;;;;;;5.10;3.03;;;;;;;-148.16;100.00;58328.31;5072189;28;20041;-58
2022/04/04 07:46:06;;;;;;;4.07;2.70;;;;;;;-148.16;100.00;58328.31;5091364;28;20063;-60
2022/04/04 07:48:55;;;;;;;6.68;3.20;;;;;;;-148.16;100.00;58328.31;5091259;28;20062;-58
2022/04/04 07:51:39;;;;;;;3.42;2.42;;;;;;;-148.16;100.00;58328.31;5091022;28;20067;-60
2022/04/04 07:54:24;;;;;;;7.43;3.42;;;;;;;-148.16;100.00;58328.31;5092302;28;20448;-60
2022/04/04 07:57:09;;;;;;;4.07;2.75;;;;;;;-148.16;100.00;58328.31;5092345;28;20101;-59
2022/04/04 07:59:53;;;;;;;4.18;2.70;;;;;;;-148.16;100.00;58328.31;5092424;28;20040;-59
2022/04/04 08:02:38;;;;;;;4.38;2.67;;;;;;;-148.16;100.00;58328.31;5092150;28;20040;-63
2022/04/04 08:05:23;;;;;;;4.55;3.00;;;;;;;-148.16;100.00;58328.31;5092122;28;20043;-62
2022/04/04 08:08:08;;;;;;;4.82;2.85;;;;;;;-148.16;100.00;58328.31;5091306;28;20048;-58
2022/04/04 08:10:53;;;;;;;4.55;2.80;;;;;;;-148.16;100.00;58328.31;5092173;28;20371;-59
2022/04/04 08:13:43;;;;;;;5.00;2.33;;;;;;;-148.16;100.00;58328.31;5092136;28;20044;-60
2022/04/04 08:16:28;;;;;;;4.15;2.60;;;;;;;-148.16;100.00;58328.31;5092234;28;20044;-60
2022/04/04 08:19:13;;;;;;;4.68;2.58;;;;;;;-148.16;100.00;58328.31;5091220;28;20055;-54
2022/04/04 08:21:58;;;;;;;5.43;2.58;;;;;;;-148.16;100.00;58328.31;5091029;28;20119;-63
2022/04/04 08:24:44;;;;;;;9.63;3.22;;;;;;;-148.16;100.00;58328.31;5091840;28;20123;-60
2022/04/04 08:27:29;;;;;;;6.75;3.60;;;;;;;-148.16;100.00;58328.31;5091849;28;20048;-65
2022/04/04 08:30:15;;;;;;;6.30;3.53;;;;;;;-148.16;100.00;58328.31;5092164;28;20447;-61
2022/04/04 08:33:00;;;;;;;10.38;4.07;;;;;;;-148.16;100.00;58328.31;5091244;28;20056;-60
2022/04/04 08:35:45;;;;;;;13.63;4.07;;;;;;;-148.16;100.00;58328.31;5092147;28;20040;-62
2022/04/04 08:38:30;;;;;;;6.43;3.38;;;;;;;-148.16;100.00;58328.31;5091620;28;20036;-65
2022/04/04 08:41:15;;;;;;;12.38;4.65;;;;;;;-148.16;100.00;58328.31;5076780;28;20101;-61
2022/04/04 08:44:01;;;;;;;8.48;2.97;;;;;;;-148.16;100.00;58328.31;5076435;28;20051;-59
2022/04/04 08:46:47;;;;;;;7.25;3.58;;;;;;;-148.16;100.00;58328.31;5094224;28;20047;-65
2022/04/04 08:49:33;;;;;;;11.27;3.78;;;;;;;-148.16;100.00;58328.31;5095690;28;20051;-61
2022/04/04 08:52:18;;;;;;;7.97;3.08;;;;;;;-148.16;100.00;58328.31;5096025;28;20051;-58
2022/04/04 08:55:03;;;;;;;3.92;2.40;;;;;;;-148.16;100.00;58328.31;5095547;28;20061;-56
2022/04/04 08:57:50;;;;;;;8.02;3.05;;;;;;;-148.16;100.00;58328.31;5096062;28;20036;-58
2022/04/04 09:00:38;;;;;;;5.15;2.90;;;;;;;-148.16;100.00;58328.31;5095601;28;20044;-59
2022/04/04 09:03:29;;;;;;;6.35;3.47;;;;;;;-148.16;100.00;58328.31;5095605;28;20067;-59
2022/04/04 09:06:14;;;;;;;8.65;3.60;;;;;;;-148.16;100.00;58328.31;5095781;28;20109;-65
2022/04/04 09:08:59;;;;;;;13.73;5.47;;;;;;;-148.16;100.00;58328.31;5095828;28;20048;-58
2022/04/04 09:11:52;;;;;;;11.85;4.05;;;;;;;-148.16;100.00;58328.31;5095669;28;20040;-56
2022/04/04 09:14:41;;;;;;;14.05;5.05;;;;;;;-148.16;100.00;58328.31;5095863;28;20047;-62
2022/04/04 09:17:29;;;;;;;10.18;3.60;;;;;;;-148.16;100.00;58328.31;5094616;28;20524;-59
2022/04/04 09:20:16;;;;;;;3.25;2.10;;;;;;;-148.16;100.00;58328.31;5094469;28;20064;-59
2022/04/04 09:23:00;;;;;;;4.90;2.25;;;;;;;-148.16;100.00;58328.31;5095201;28;20044;-58
2022/04/04 09:25:45;;;;;;;3.53;2.50;;;;;;;-148.16;100.00;58328.31;5091479;28;20056;-58
2022/04/04 09:28:30;;;;;;;5.07;2.30;;;;;;;-148.16;100.00;58328.31;5094302;28;20040;-61
2022/04/04 09:31:14;;;;;;;4.20;2.38;;;;;;;-148.16;100.00;58328.31;5094511;28;20047;-59
2022/04/04 09:34:02;;;;;;;5.95;2.70;;;;;;;-148.16;100.00;58328.31;5094409;28;20124;-48
2022/04/04 09:36:48;;;;;;;5.28;2.47;;;;;;;-148.16;100.00;58328.31;5095427;28;20044;-47
2022/04/04 09:39:33;;;;;;;4.50;2.05;;;;;;;-148.16;100.00;58328.31;5093725;28;20064;-43
2022/04/04 09:42:20;;;;;;;3.78;2.00;;;;;;;-148.16;100.00;58328.31;5093114;28;20089;-45
2022/04/04 09:45:09;;;;;;;7.13;2.22;;;;;;;-148.16;100.00;58328.31;5090422;28;20097;-42
2022/04/04 09:48:09;;;;;;;3.72;2.15;;;;;;;-148.16;100.00;58328.31;5093062;28;20051;-43
2022/04/04 09:50:53;;;;;;;3.50;2.10;;;;;;;-148.16;100.00;58328.31;5092488;28;20438;-43
2022/04/04 09:53:38;;;;;;;2.85;1.90;;;;;;;-148.16;100.00;58328.31;5093958;28;20399;-41
2022/04/04 09:56:25;;;;;;;3.72;1.52;;;;;;;-148.16;100.00;58328.31;5093849;28;20058;-40
2022/04/04 09:59:12;;;;;;;4.75;2.22;;;;;;;-148.16;100.00;58328.31;5091732;28;20047;-40
2022/04/04 10:01:57;;;;;;;2.83;2.03;;;;;;;-148.16;100.00;58328.31;5094473;28;20471;-41
2022/04/04 10:04:44;;;;;;;3.90;1.75;;;;;;;-148.16;100.00;58328.31;5093635;28;20062;-45
2022/04/04 10:07:30;;;;;;;2.67;1.67;;;;;;;-148.16;100.00;58328.31;5094597;28;20075;-40
2022/04/04 10:10:16;;;;;;;4.20;2.38;;;;;;;-148.16;100.00;58328.31;5093682;28;20043;-52
2022/04/04 10:13:02;;;;;;;3.72;2.25;;;;;;;-148.16;100.00;58328.31;5091998;28;20475;-51
2022/04/04 10:15:48;;;;;;;4.10;2.50;;;;;;;-148.16;100.00;58328.31;5094015;28;20036;-53
2022/04/04 10:18:35;;;;;;;3.17;2.40;;;;;;;-148.16;100.00;58328.31;5094186;28;20038;-48
2022/04/04 10:21:21;;;;;;;3.80;2.30;;;;;;;-148.16;100.00;58328.31;5094179;28;20093;-52
2022/04/04 10:24:08;;;;;;;3.80;2.17;;;;;;;-148.16;100.00;58328.31;5078504;28;20394;-52
2022/04/04 10:26:54;;;;;;;4.65;2.13;;;;;;;-148.16;100.00;58328.31;5092752;28;20113;-50
2022/04/04 10:29:40;;;;;;;8.20;2.25;;;;;;;-148.16;100.00;58328.31;5093477;28;20036;-55
2022/04/04 10:32:28;;;;;;;2.70;1.90;;;;;;;-148.16;100.00;58328.31;5090904;28;20043;-49
2022/04/04 10:35:21;;;;;;;3.97;2.03;;;;;;;-148.16;100.00;58328.31;5077810;28;20052;-48
2022/04/04 10:38:07;;;;;;;3.33;2.05;;;;;;;-148.16;100.00;58328.31;5092097;28;20058;-55
2022/04/04 10:40:54;;;;;;;3.20;2.33;;;;;;;-148.16;100.00;58328.31;5090933;28;20527;-51
2022/04/04 10:43:43;;;;;;;2.78;2.03;;;;;;;-148.16;100.00;58328.31;5087181;28;20089;-54
2022/04/04 10:46:28;;;;;;;3.25;2.35;;;;;;;-148.16;100.00;58328.31;5090353;28;20040;-52
2022/04/04 10:49:12;;;;;;;4.40;2.63;;;;;;;-148.16;100.00;58328.31;5091242;28;20057;-50
2022/04/04 10:51:57;;;;;;;5.35;2.78;;;;;;;-148.16;100.00;58328.31;5090710;28;20062;-48
2022/04/04 10:54:42;;;;;;;5.13;3.00;;;;;;;-148.16;100.00;58328.31;5089867;28;20556;-53
2022/04/04 10:57:27;;;;;;;5.22;2.22;;;;;;;-148.16;100.00;58328.31;5092969;28;20036;-50
2022/04/04 11:00:16;;;;;;;5.07;2.63;;;;;;;-148.16;100.00;58328.31;5091881;28;20058;-52
2022/04/04 11:03:01;;;;;;;6.32;3.40;;;;;;;-148.16;100.00;58328.31;5089930;28;20040;-51
2022/04/04 11:09:18;;;;;;;9.15;3.22;;;;;;;-148.16;100.00;58328.31;5101980;28;20046;-50
2022/04/04 11:12:09;;;;;;;10.38;3.80;;;;;;;-148.16;100.00;58328.31;5093093;28;20056;-50
2022/04/04 11:15:06;;;;;;;6.55;3.13;;;;;;;-148.16;100.00;58328.31;5092478;28;20040;-53
2022/04/04 11:17:57;;;;;;;5.43;3.28;;;;;;;-148.16;100.00;58328.31;5092323;28;20044;-49
2022/04/04 11:20:50;;;;;;;7.78;3.05;;;;;;;-148.16;100.00;58328.31;5092203;28;20048;-46
2022/04/04 11:23:35;;;;;;;7.45;2.90;;;;;;;-148.16;100.00;58328.31;5092451;28;20051;-51
2022/04/04 11:26:20;;;;;;;3.78;2.53;;;;;;;-148.16;100.00;58328.31;5092915;28;20494;-52
2022/04/04 11:29:09;;;;;;;3.55;2.67;;;;;;;-148.16;100.00;58328.31;5092958;28;20036;-49
2022/04/04 11:31:54;;;;;;;3.90;2.40;;;;;;;-148.16;100.00;58328.31;5091802;28;20048;-51
2022/04/04 11:34:42;;;;;;;4.28;2.47;;;;;;;-148.16;100.00;58328.31;5093156;28;20062;-51
2022/04/04 11:37:29;;;;;;;5.82;2.67;;;;;;;-148.16;100.00;58328.31;5093743;28;20089;-49
2022/04/04 11:40:34;;;;;;;6.15;2.83;;;;;;;-148.16;100.00;58328.31;5093162;28;20040;-52
2022/04/04 11:43:21;;;;;;;4.13;2.67;;;;;;;-148.16;100.00;58328.31;5092351;28;20044;-52
2022/04/04 11:46:14;;;;;;;3.65;2.58;;;;;;;-148.16;100.00;58328.31;5093112;28;20044;-53
2022/04/04 11:48:59;;;;;;;6.35;2.92;;;;;;;-148.16;100.00;58328.31;5092763;28;20055;-49
2022/04/04 11:51:45;;;;;;;4.70;2.70;;;;;;;-148.16;100.00;58328.31;5093238;28;20086;-53
2022/04/04 11:54:37;;;;;;;10.82;3.17;;;;;;;-148.16;100.00;58328.31;5092433;28;20213;-54
2022/04/04 11:57:23;;;;;;;3.85;2.63;;;;;;;-148.16;100.00;58328.31;5091584;28;20044;-51
2022/04/04 12:00:11;;;;;;;4.68;2.95;;;;;;;-148.16;100.00;58328.31;5092712;28;20048;-52
2022/04/04 12:02:56;;;;;;;4.32;2.83;;;;;;;-148.16;100.00;58328.31;5092659;28;20040;-50
2022/04/04 12:05:49;;;;;;;7.90;3.05;;;;;;;-148.16;100.00;58328.31;5091317;28;20192;-54
2022/04/04 12:08:42;;;;;;;5.78;2.85;;;;;;;-148.16;100.00;58328.31;5092647;28;20491;-52
2022/04/04 12:11:28;;;;;;;3.17;2.20;;;;;;;-148.16;100.00;58328.31;5092708;28;20047;-50
2022/04/04 12:14:13;;;;;;;5.10;2.72;;;;;;;-148.16;100.00;58328.31;5091320;28;20044;-50
2022/04/04 12:16:58;;;;;;;6.13;3.53;;;;;;;-148.16;100.00;58328.31;5092167;28;20040;-49
2022/04/04 12:19:44;;;;;;;5.38;3.75;;;;;;;-148.16;100.00;58328.31;5092247;28;20037;-50
2022/04/04 12:25:39;;;;;;;7.65;3.88;;;;;;;-148.16;100.00;58328.31;5096439;28;20052;-52
2022/04/04 12:28:27;;;;;;;9.63;4.75;;;;;;;-148.16;100.00;58328.31;5095501;28;20047;-53
2022/04/04 12:31:16;;;;;;;6.18;3.75;;;;;;;-148.16;100.00;58328.31;5094947;28;20048;-50
2022/04/04 12:34:09;;;;;;;5.55;3.78;;;;;;;-148.16;100.00;58328.31;5095944;28;20048;-51
2022/04/04 12:37:01;;;;;;;5.85;3.55;;;;;;;-148.16;100.00;58328.31;5080817;28;20097;-52
2022/04/04 12:39:49;;;;;;;5.47;3.58;;;;;;;-148.16;100.00;58328.31;5095407;28;20399;-50
2022/04/04 12:42:34;;;;;;;6.07;3.85;;;;;;;-148.16;100.00;58328.31;5096148;28;20051;-52